Messwerte Edson

Temperatur

Temperatur
°C
1573880400 22.00 22.00 1
1573884000 23.00 23.00 0
1573887600 0.00 0.00 -1
1573891200 1.00 1.00 -2
1573894800 2.00 2.00
1573898400 3.00 3.00 -3
1573902000 4.00 4.00 -4
1573905600 5.00 5.00 -4
1573909200 6.00 6.00
1573912800 7.00 7.00 -5
1573916400 8.00 8.00 -6
1573920000 9.00 9.00 -6
1573923600 10.00 10.00 -5
1573927200 11.00 11.00 -2
1573930800 12.00 12.00 -2
1573934400 13.00 13.00 0
1573938000 14.00 14.00 1
1573941600 15.00 15.00 1
1573945200 16.00 16.00 0
1573948800 17.00 17.00 0
1573952400 18.00 18.00 0
1573956000 19.00 19.00 -1
1573959600 20.00 20.00 -1
1573963200 21.00 21.00 -2

Aktuellste Messwerte

Wettercharakter
Wetter: meist klar
Temperatur
-2 °C
Feuchtigkeit
100 %
Wind
5 km/hWindrichtung: West
Luftdruck
1005 hPa
Messzeit: 16. November 2019, 21.00Datenquelle: METAR

Weitere Messstationen in der Nähe

Messstation Temperatur Entfernung
Edson Cr10 -2 °C 0 km
Whitecourt -1 °C 76 km
Jasper Warden 4 °C 143 km
Rocky Mountain House -2 °C 166 km
Valleyview Agdm 2 °C 175 km
Edmonton International CS 1 °C 192 km
Edmonton 1 °C 193 km

Wind

Windrichtung Böen Mittelwind
° km/h km/h
1573880400 22.00 21.00 - 22.00 280° 5
1573884000 23.00 22.00 - 23.00 340° 5
1573887600 0.00 23.00 - 0.00 300° 5
1573891200 1.00 0.00 - 1.00 0
1573894800 2.00 1.00 - 2.00
1573898400 3.00 2.00 - 3.00 260° 5
1573902000 4.00 3.00 - 4.00 5
1573905600 5.00 4.00 - 5.00 220° 5
1573909200 6.00 5.00 - 6.00
1573912800 7.00 6.00 - 7.00 270° 5
1573916400 8.00 7.00 - 8.00 270° 10
1573920000 9.00 8.00 - 9.00 280° 10
1573923600 10.00 9.00 - 10.00 270° 10
1573927200 11.00 10.00 - 11.00 5
1573930800 12.00 11.00 - 12.00 270° 5
1573934400 13.00 12.00 - 13.00 0
1573938000 14.00 13.00 - 14.00 0
1573941600 15.00 14.00 - 15.00 0
1573945200 16.00 15.00 - 16.00 0
1573948800 17.00 16.00 - 17.00 0
1573952400 18.00 17.00 - 18.00 5
1573956000 19.00 18.00 - 19.00 5
1573959600 20.00 19.00 - 20.00 0
1573963200 21.00 20.00 - 21.00 290° 5

Ihre Wetterstation

Fehlt Ihre Wetterstation auf unserem Portal?

Schreiben Sie an network@meteonews.ch

Klima

Wann ist es am wärmsten? Wann regnet es am wenigsten? Unsere Klimadaten geben Auskunft.